ULLILBBG

Guest
Details From ULLI - Saint Petersburg Pulkovo
To LBBG - Burgas
Flight Number -
Tags Generated
Created
Modified
Stats Distance 1,041 nm / 1,928 km
Max Altitude 0 ft / 0 m
Waypoints 4
Social Downloads 2
Likes 0
Share VATSIM

Download

Looking for another format? Having issues loading an existing format? Contact us
Advertisement - Login to hide

Notes

Generated

Route

ULLI BUSES BGS LBBG

ID Type Via Altitude Latitude Longitude Leg Dist Tot Dist Heading (true) Name
O ULLI APT - 0 ft / 0 m 59.80973˚ 30.24537˚ - 0 nm - -
BUSES FIX - 0 ft / 0 m 46.92583˚ 28.10611˚ 777 nm 777 nm 187° / 185° -
BGS VOR - 0 ft / 0 m 42.57106˚ 27.51986˚ 262 nm 1040 nm 186° / 185° BURGAS VOR-DME
O LBBG APT - 0 ft / 0 m 42.55983˚ 27.50160˚ 1 nm 1041 nm 230° / 230° -

Altitude Profile

Advertisement - Login to hide

Weather


0- 5 10 15 20 25 30 35+ Temperature / ° C

Clouds and Precipitation
Forecast for 2018-05-21 18:00 UTC. Updated 2 hours ago

Ground ~20,000 ft ~40,000 ft Winds

ULLI

Details ICAO ULLI (LED)
Name Saint Petersburg Pulkovo
Region Russia
Timezone Europe/Moscow (UTC+3.0)
Stats Elevation 78 ft / 24 m (AMSL)
Location 59.800292° 30.262504°
Runways 2
Magnetic Variation 10.760° E

METAR

ULLI 211700Z 32003MPS CAVOK 20/03 Q1027 R28L/090060 NOSIG

Decode

TAF

TAF ULLI 211400Z 2115/2215 29003MPS 9999 SCT025 TEMPO 2115/2118 31004G09MPS BECMG 2200/2202 16003MPS TEMPO 2200/2205 3100 BR BECMG 2212/2214 BKN013 BKN020

Decode

Departure Runways

ID Width Length Bearing (true) Bearing (mag) Surface Threshold Offset Overrun Length
10L 197 ft / 60 m 11,115 ft / 3,388 m 106.38° 95.62° Concrete 0 ft / 0 m 235 ft / 72 m
10R 197 ft / 60 m 12,365 ft / 3,769 m 106.40° 95.64° Concrete 0 ft / 0 m 220 ft / 67 m
28L 197 ft / 60 m 12,365 ft / 3,769 m 286.46° 275.70° Concrete 0 ft / 0 m 260 ft / 79 m
28R 197 ft / 60 m 11,115 ft / 3,388 m 286.44° 275.68° Concrete 0 ft / 0 m 240 ft / 73 m

LBBG

Details ICAO LBBG (BOJ)
Name Burgas
Region Bulgaria
Timezone Europe/Sofia (UTC+3.0)
Stats Elevation 135 ft / 41 m (AMSL)
Location 42.570130° 27.515240°
Runways 1
Magnetic Variation 5.547° E

METAR

LBBG 211700Z 08014KT 9999 FEW020 BKN029 19/15 Q1019 NOSIG

Decode

TAF

TAF TAF LBBG 211100Z 2112/2212 09014KT 9999 FEW015 SCT045 PROB30 TEMPO 2112/2117 SHRA SCT013 FEW030CB BKN040 BECMG 2118/2120 03012KT TEMPO 2121/2205 BKN015

Decode

Destination Runways

ID Width Length Bearing (true) Bearing (mag) Surface Threshold Offset Overrun Length
04 148 ft / 45 m 10,502 ft / 3,201 m 44.28° 38.73° Concrete 0 ft / 0 m 190 ft / 58 m
22 148 ft / 45 m 10,502 ft / 3,201 m 224.29° 218.74° Concrete 0 ft / 0 m 190 ft / 58 m

Approach Navaids

Runway Type Ident Frequency Range Bearing (true) Bearing (mag) Slope Elevation
22 Localiser IBG 110.30 MHz 18 nm / 33 km 224.26° 218.72° - 135 ft / 41 m (AMSL)
22 Glidescope IBG 110.30 MHz 10 nm / 19 km 224.28° 218.74° 3.00° 135 ft / 41 m (AMSL)

Popular Alternatives